createdAt,value
2019-02-21T00:00:42.957Z,5.70
2019-02-21T00:03:13.788Z,5.70
2019-02-21T00:05:45.520Z,5.70
2019-02-21T00:08:16.260Z,5.70
2019-02-21T00:10:46.728Z,5.50
2019-02-21T00:13:17.189Z,5.40
2019-02-21T00:15:47.646Z,5.30
2019-02-21T00:18:18.527Z,5.10
2019-02-21T00:20:49.010Z,5.00
2019-02-21T00:23:20.528Z,4.90
2019-02-21T00:25:51.006Z,5.00
2019-02-21T00:28:21.501Z,5.00
2019-02-21T00:30:52.345Z,5.10
2019-02-21T00:33:22.811Z,5.10
2019-02-21T00:35:53.388Z,5.20
2019-02-21T00:38:23.881Z,5.20
2019-02-21T00:40:54.358Z,5.20
2019-02-21T00:43:25.053Z,5.30
2019-02-21T00:45:55.938Z,5.30
2019-02-21T00:48:26.413Z,5.30
2019-02-21T00:50:56.985Z,5.30
2019-02-21T00:53:28.534Z,5.30
2019-02-21T00:55:59.060Z,5.30
2019-02-21T00:58:30.520Z,5.30
2019-02-21T01:01:01.029Z,5.20
2019-02-21T01:03:31.578Z,5.20
2019-02-21T01:06:02.156Z,5.20
2019-02-21T01:08:32.640Z,5.20
2019-02-21T01:11:03.375Z,5.10
2019-02-21T01:13:33.906Z,5.10
2019-02-21T01:16:04.432Z,5.10
2019-02-21T01:18:36.640Z,5.10
2019-02-21T01:21:07.344Z,5.10
2019-02-21T01:23:37.815Z,5.00
2019-02-21T01:26:08.288Z,5.00
2019-02-21T01:28:39.048Z,5.00
2019-02-21T01:31:09.853Z,5.00
2019-02-21T01:33:40.379Z,5.00
2019-02-21T01:36:10.881Z,5.00
2019-02-21T01:38:41.346Z,5.00
2019-02-21T01:41:11.777Z,4.90
2019-02-21T01:43:42.628Z,4.90
2019-02-21T01:46:13.106Z,4.90
2019-02-21T01:48:43.553Z,4.90
2019-02-21T01:51:14.020Z,4.80
2019-02-21T01:53:44.477Z,4.80
2019-02-21T01:56:15.269Z,4.70
2019-02-21T01:58:45.732Z,4.70
2019-02-21T02:01:17.253Z,4.70
2019-02-21T02:03:48.053Z,4.60
2019-02-21T02:06:18.505Z,4.50
2019-02-21T02:08:49.036Z,4.50
2019-02-21T02:11:19.494Z,4.50
2019-02-21T02:13:49.955Z,4.50
2019-02-21T02:16:20.436Z,4.50
2019-02-21T02:18:50.880Z,4.40
2019-02-21T02:21:21.333Z,4.30
2019-02-21T02:23:52.025Z,4.20
2019-02-21T02:26:22.489Z,4.10
2019-02-21T02:28:53.340Z,4.10
2019-02-21T02:31:23.979Z,4.10
2019-02-21T02:33:55.396Z,4.10
2019-02-21T02:36:25.849Z,4.10
2019-02-21T02:38:56.320Z,4.10
2019-02-21T02:41:27.071Z,4.20
2019-02-21T02:43:57.555Z,4.20
2019-02-21T02:46:28.044Z,4.20
2019-02-21T02:48:58.588Z,4.10
2019-02-21T02:51:29.067Z,4.10
2019-02-21T02:53:59.942Z,4.10
2019-02-21T02:56:30.881Z,4.10
2019-02-21T02:59:01.765Z,4.10
2019-02-21T03:03:59.310Z,4.00
2019-02-21T03:06:29.863Z,4.00
2019-02-21T03:09:00.320Z,4.00
2019-02-21T03:11:31.233Z,4.00
2019-02-21T03:14:02.053Z,4.00
2019-02-21T03:16:32.542Z,4.00
2019-02-21T03:19:03.035Z,4.00
2019-02-21T03:21:33.496Z,3.90
2019-02-21T03:24:03.966Z,3.90
2019-02-21T03:26:34.679Z,3.90
2019-02-21T03:29:05.140Z,3.90
2019-02-21T03:31:52.685Z,3.90
2019-02-21T03:34:07.762Z,4.00
2019-02-21T03:36:38.226Z,4.10
2019-02-21T03:39:09.785Z,4.10
2019-02-21T03:41:40.574Z,4.10
2019-02-21T03:44:11.456Z,4.10
2019-02-21T03:46:42.441Z,4.10
2019-02-21T03:49:13.248Z,4.20
2019-02-21T03:51:44.015Z,4.20
2019-02-21T03:54:14.521Z,4.10
2019-02-21T03:56:45.283Z,4.00
2019-02-21T03:59:15.740Z,4.00
2019-02-21T04:01:46.512Z,4.00
2019-02-21T04:04:16.953Z,3.90
2019-02-21T04:06:47.403Z,3.90
2019-02-21T04:09:17.804Z,3.90
2019-02-21T04:11:48.267Z,3.80
2019-02-21T04:14:20.841Z,3.80
2019-02-21T04:16:51.290Z,3.80
2019-02-21T04:19:21.743Z,3.60
2019-02-21T04:21:52.209Z,3.50
2019-02-21T04:24:22.937Z,3.50
2019-02-21T04:26:56.877Z,3.50
2019-02-21T04:29:27.348Z,3.50
2019-02-21T04:31:58.470Z,3.50
2019-02-21T04:34:29.198Z,3.50
2019-02-21T04:36:59.661Z,3.50
2019-02-21T04:39:30.141Z,3.50
2019-02-21T04:42:00.638Z,3.50
2019-02-21T04:44:31.105Z,3.50
2019-02-21T04:47:01.552Z,3.50
2019-02-21T04:49:32.015Z,3.50
2019-02-21T04:52:02.459Z,3.40
2019-02-21T04:54:33.237Z,3.30
2019-02-21T04:57:03.699Z,3.30
2019-02-21T04:59:34.149Z,3.30
2019-02-21T05:02:04.616Z,3.30
2019-02-21T05:04:35.085Z,3.30
2019-02-21T05:07:06.706Z,3.30
2019-02-21T05:09:37.170Z,3.30
2019-02-21T05:12:07.629Z,3.20
2019-02-21T05:14:38.094Z,3.20
2019-02-21T05:17:08.891Z,3.20
2019-02-21T05:19:39.358Z,3.20
2019-02-21T05:22:09.938Z,3.10
2019-02-21T05:24:40.403Z,3.10
2019-02-21T05:27:20.863Z,3.10
2019-02-21T05:29:51.429Z,3.10
2019-02-21T05:32:53.374Z,3.10
2019-02-21T05:35:31.478Z,3.00
2019-02-21T05:38:39.192Z,3.00
2019-02-21T05:41:36.537Z,3.00
2019-02-21T05:44:15.869Z,2.90
2019-02-21T05:47:08.458Z,2.90
2019-02-21T05:49:53.279Z,2.90
2019-02-21T05:52:34.896Z,2.90
2019-02-21T05:55:10.547Z,2.90
2019-02-21T05:58:00.488Z,2.80
2019-02-21T06:00:44.382Z,2.90
2019-02-21T06:03:35.733Z,2.90
2019-02-21T06:06:23.208Z,2.90
2019-02-21T06:09:06.438Z,2.90
2019-02-21T06:12:07.064Z,2.90
2019-02-21T06:14:50.183Z,2.80
2019-02-21T06:17:30.694Z,2.80
2019-02-21T06:20:10.910Z,2.90
2019-02-21T06:22:53.089Z,2.80
2019-02-21T06:25:32.158Z,2.90
2019-02-21T06:28:21.008Z,2.90
2019-02-21T06:30:55.029Z,2.90
2019-02-21T06:33:28.050Z,2.90
2019-02-21T06:35:57.634Z,2.90
2019-02-21T06:38:28.069Z,2.90
2019-02-21T06:40:58.912Z,2.90
2019-02-21T06:43:29.366Z,3.00
2019-02-21T06:45:59.821Z,3.00
2019-02-21T06:48:30.609Z,3.00
2019-02-21T06:51:01.066Z,3.00
2019-02-21T06:53:31.552Z,3.00
2019-02-21T06:56:02.058Z,3.10
2019-02-21T06:58:32.529Z,3.10
2019-02-21T07:01:03.007Z,3.10
2019-02-21T07:03:33.458Z,3.10
2019-02-21T07:06:04.976Z,3.20
2019-02-21T07:08:35.443Z,3.20
2019-02-21T07:11:06.677Z,3.30
2019-02-21T07:13:37.357Z,3.30
2019-02-21T07:16:07.808Z,3.40
2019-02-21T07:18:40.826Z,3.40
2019-02-21T07:21:13.289Z,3.40
2019-02-21T07:23:44.013Z,3.40
2019-02-21T07:26:17.208Z,3.50
2019-02-21T07:28:47.670Z,3.50
2019-02-21T07:31:28.112Z,3.60
2019-02-21T07:33:51.501Z,3.70
2019-02-21T07:36:21.953Z,3.70
2019-02-21T07:39:01.293Z,3.80
2019-02-21T07:41:24.583Z,3.90
2019-02-21T07:43:55.599Z,3.90
2019-02-21T07:46:26.054Z,4.00
2019-02-21T07:48:56.526Z,4.10
2019-02-21T07:51:26.990Z,4.10
2019-02-21T07:53:57.490Z,4.20
2019-02-21T07:56:27.963Z,4.30
2019-02-21T07:58:58.409Z,4.40
2019-02-21T08:01:28.945Z,4.50
2019-02-21T08:03:59.392Z,4.60
2019-02-21T08:06:29.855Z,4.70
2019-02-21T08:09:00.342Z,4.80
2019-02-21T08:11:30.823Z,4.90
2019-02-21T08:14:01.264Z,4.90
2019-02-21T08:16:31.844Z,5.00
2019-02-21T08:19:02.327Z,5.10
2019-02-21T08:21:34.482Z,5.20
2019-02-21T08:24:08.498Z,5.30
2019-02-21T08:26:38.958Z,5.50
2019-02-21T08:29:09.407Z,5.60
2019-02-21T08:31:39.873Z,5.80
2019-02-21T08:34:33.125Z,5.90
2019-02-21T08:37:03.612Z,6.00
2019-02-21T08:39:34.087Z,6.20
2019-02-21T08:42:04.559Z,6.30
2019-02-21T08:44:35.001Z,6.40
2019-02-21T08:47:05.457Z,6.60
2019-02-21T08:49:36.217Z,6.70
2019-02-21T08:52:06.660Z,6.80
2019-02-21T08:54:37.117Z,6.90
2019-02-21T08:57:07.568Z,7.00
2019-02-21T08:59:38.342Z,7.10
2019-02-21T09:02:09.117Z,7.10
2019-02-21T09:04:39.569Z,7.20
2019-02-21T09:07:10.017Z,7.30
2019-02-21T09:09:40.496Z,7.40
2019-02-21T09:12:10.937Z,7.50
2019-02-21T09:14:41.403Z,7.60
2019-02-21T09:17:11.949Z,7.70
2019-02-21T09:19:42.391Z,7.80
2019-02-21T09:22:12.832Z,7.90
2019-02-21T09:24:43.629Z,8.10
2019-02-21T09:27:14.105Z,8.20
2019-02-21T09:29:44.873Z,8.40
2019-02-21T09:32:15.306Z,8.50
2019-02-21T09:34:46.064Z,8.60
2019-02-21T09:37:16.812Z,8.70
2019-02-21T09:39:47.283Z,8.80
2019-02-21T09:42:18.053Z,8.90
2019-02-21T09:44:49.826Z,9.00
2019-02-21T09:47:20.666Z,9.20
2019-02-21T09:49:52.134Z,9.30
2019-02-21T09:52:22.576Z,9.50
2019-02-21T09:54:54.309Z,9.70
2019-02-21T09:57:24.781Z,9.80
2019-02-21T09:59:55.229Z,9.90
2019-02-21T10:02:25.697Z,10.10
2019-02-21T10:05:04.521Z,10.20
2019-02-21T10:07:28.624Z,10.40
2019-02-21T10:10:00.975Z,10.50
2019-02-21T10:12:33.390Z,10.70
2019-02-21T10:15:03.841Z,10.80
2019-02-21T10:17:34.441Z,11.00
2019-02-21T10:20:06.301Z,11.20
2019-02-21T10:22:36.766Z,11.40
2019-02-21T10:25:10.801Z,11.60
2019-02-21T10:27:42.460Z,11.90
2019-02-21T10:30:15.445Z,12.10
2019-02-21T10:32:51.286Z,12.30
2019-02-21T10:35:21.752Z,12.50
2019-02-21T10:37:52.693Z,12.70
2019-02-21T10:40:23.245Z,12.90
2019-02-21T10:42:54.034Z,13.00
2019-02-21T10:45:24.489Z,13.20
2019-02-21T10:47:54.942Z,13.40
2019-02-21T10:50:26.460Z,13.70
2019-02-21T10:52:56.912Z,13.90
2019-02-21T10:55:27.362Z,14.10
2019-02-21T10:57:57.834Z,14.40
2019-02-21T11:00:29.160Z,14.80
2019-02-21T11:02:59.768Z,15.50
2019-02-21T11:05:30.235Z,16.00
2019-02-21T11:08:00.709Z,16.50
2019-02-21T11:10:31.153Z,17.00
2019-02-21T11:13:01.599Z,17.50
2019-02-21T11:15:32.076Z,17.90
2019-02-21T11:18:02.545Z,18.30
2019-02-21T11:20:33.029Z,18.70
2019-02-21T11:23:06.511Z,19.20
2019-02-21T11:25:36.832Z,19.60
2019-02-21T11:28:07.282Z,19.90
2019-02-21T11:30:38.074Z,20.20
2019-02-21T11:33:08.606Z,20.50
2019-02-21T11:35:39.290Z,20.70
2019-02-21T11:38:09.809Z,21.00
2019-02-21T11:40:40.275Z,21.20
2019-02-21T11:43:11.018Z,21.40
2019-02-21T11:45:41.469Z,21.80
2019-02-21T11:48:11.960Z,21.90
2019-02-21T11:50:43.366Z,22.00
2019-02-21T11:53:13.839Z,22.30
2019-02-21T11:55:44.297Z,22.60
2019-02-21T11:58:14.737Z,22.70
2019-02-21T12:00:45.216Z,22.80
2019-02-21T12:03:15.803Z,22.80
2019-02-21T12:05:46.606Z,22.80
2019-02-21T12:08:17.068Z,23.00
2019-02-21T12:10:47.601Z,23.20
2019-02-21T12:13:18.256Z,23.40
2019-02-21T12:15:48.735Z,23.60
2019-02-21T12:18:19.463Z,23.70
2019-02-21T12:20:49.980Z,23.80
2019-02-21T12:23:20.487Z,23.70
2019-02-21T12:25:51.077Z,23.80
2019-02-21T12:28:21.641Z,23.70
2019-02-21T12:30:52.073Z,23.80
2019-02-21T12:33:22.873Z,23.90
2019-02-21T12:35:53.895Z,24.00
2019-02-21T12:38:24.325Z,24.00
2019-02-21T12:40:54.811Z,24.20
2019-02-21T12:43:25.301Z,24.50
2019-02-21T12:46:00.550Z,24.70
2019-02-21T12:48:31.041Z,24.90
2019-02-21T12:51:01.515Z,25.20
2019-02-21T12:53:32.010Z,25.40
2019-02-21T12:56:02.858Z,25.60
2019-02-21T12:58:33.330Z,25.80
2019-02-21T13:01:03.774Z,25.90
2019-02-21T13:03:34.541Z,25.80
2019-02-21T13:06:05.004Z,25.90
2019-02-21T13:08:35.473Z,25.80
2019-02-21T13:11:05.969Z,26.00
2019-02-21T13:13:36.492Z,26.20
2019-02-21T13:16:06.959Z,26.40
2019-02-21T13:18:37.437Z,26.50
2019-02-21T13:21:07.920Z,26.50
2019-02-21T13:23:38.471Z,26.60
2019-02-21T13:26:08.930Z,26.60
2019-02-21T13:28:39.398Z,26.60
2019-02-21T13:31:09.897Z,26.50
2019-02-21T13:33:40.887Z,26.50
2019-02-21T13:36:11.481Z,26.50
2019-02-21T13:38:41.973Z,26.50
2019-02-21T13:41:12.617Z,26.50
2019-02-21T13:43:43.081Z,26.60
2019-02-21T13:46:13.653Z,26.70
2019-02-21T13:48:45.038Z,26.60
2019-02-21T13:51:15.487Z,26.60
2019-02-21T13:53:46.920Z,26.70
2019-02-21T13:56:17.401Z,26.70
2019-02-21T13:58:47.860Z,26.70
2019-02-21T14:01:18.666Z,26.70
2019-02-21T14:03:49.162Z,26.60
2019-02-21T14:06:19.596Z,26.30
2019-02-21T14:08:50.031Z,26.00
2019-02-21T14:11:20.541Z,25.60
2019-02-21T14:13:51.987Z,24.80
2019-02-21T14:16:22.791Z,24.00
2019-02-21T14:18:53.261Z,23.10
2019-02-21T14:21:23.703Z,22.20
2019-02-21T14:23:54.538Z,21.40
2019-02-21T14:26:25.005Z,20.70
2019-02-21T14:28:55.813Z,20.20
2019-02-21T14:31:26.289Z,19.80
2019-02-21T14:33:59.025Z,19.40
2019-02-21T14:36:29.598Z,19.00
2019-02-21T14:39:00.119Z,18.70
2019-02-21T14:41:30.849Z,18.50
2019-02-21T14:44:01.459Z,18.20
2019-02-21T14:46:31.913Z,18.10
2019-02-21T14:49:02.540Z,17.90
2019-02-21T14:51:33.230Z,17.90
2019-02-21T14:54:03.777Z,17.70
2019-02-21T14:56:34.241Z,17.60
2019-02-21T14:59:04.714Z,17.50
2019-02-21T15:01:35.193Z,17.50
2019-02-21T15:04:05.628Z,17.40
2019-02-21T15:06:36.093Z,17.40
2019-02-21T15:09:07.201Z,17.40
2019-02-21T15:11:38.014Z,17.30
2019-02-21T15:14:08.512Z,17.30
2019-02-21T15:16:39.069Z,17.30
2019-02-21T15:19:10.788Z,17.20
2019-02-21T15:21:41.277Z,17.20
2019-02-21T15:24:13.122Z,17.00
2019-02-21T15:26:43.824Z,16.90
2019-02-21T15:29:15.287Z,16.80
2019-02-21T15:31:46.123Z,16.70
2019-02-21T15:34:16.743Z,16.50
2019-02-21T15:36:47.311Z,16.50
2019-02-21T15:39:17.814Z,16.30
2019-02-21T15:41:48.319Z,16.20
2019-02-21T15:44:18.791Z,16.10
2019-02-21T15:46:49.646Z,15.90
2019-02-21T15:49:20.200Z,15.80
2019-02-21T15:51:51.008Z,15.70
2019-02-21T15:54:21.497Z,15.60
2019-02-21T15:56:51.966Z,15.50
2019-02-21T15:59:23.017Z,15.50
2019-02-21T16:01:53.802Z,15.50
2019-02-21T16:04:24.392Z,15.50
2019-02-21T16:06:55.226Z,15.40
2019-02-21T16:09:25.778Z,15.30
2019-02-21T16:11:56.829Z,15.10
2019-02-21T16:14:27.930Z,15.10
2019-02-21T16:16:58.479Z,15.00
2019-02-21T16:19:28.944Z,14.90
2019-02-21T16:21:59.465Z,14.80
2019-02-21T16:24:30.360Z,14.70
2019-02-21T16:27:00.809Z,14.60
2019-02-21T16:29:31.297Z,14.50
2019-02-21T16:32:01.748Z,14.40
2019-02-21T16:34:33.119Z,14.20
2019-02-21T16:37:03.803Z,14.20
2019-02-21T16:39:34.278Z,14.00
2019-02-21T16:42:04.753Z,13.90
2019-02-21T16:44:35.597Z,13.70
2019-02-21T16:47:06.082Z,13.60
2019-02-21T16:49:36.621Z,13.50
2019-02-21T16:52:07.404Z,13.30
2019-02-21T16:54:38.246Z,13.10
2019-02-21T16:57:09.041Z,13.00
2019-02-21T16:59:39.502Z,12.80
2019-02-21T17:02:10.341Z,12.70
2019-02-21T17:04:41.200Z,12.60
2019-02-21T17:07:17.363Z,12.50
2019-02-21T17:09:43.811Z,12.40
2019-02-21T17:12:14.304Z,12.30
2019-02-21T17:14:44.771Z,12.10
2019-02-21T17:17:15.594Z,12.00
2019-02-21T17:19:46.110Z,12.00
2019-02-21T17:22:16.618Z,11.80
2019-02-21T17:24:48.384Z,11.70
2019-02-21T17:27:18.854Z,11.60
2019-02-21T17:29:49.325Z,11.60
2019-02-21T17:32:19.793Z,11.50
2019-02-21T17:34:50.286Z,11.40
2019-02-21T17:37:24.841Z,11.40
2019-02-21T17:39:53.271Z,11.30
2019-02-21T17:42:23.879Z,11.30
2019-02-21T17:44:54.406Z,11.30
2019-02-21T17:47:24.889Z,11.30
2019-02-21T17:49:55.377Z,11.30
2019-02-21T17:52:25.836Z,11.30
2019-02-21T17:54:56.273Z,11.30
2019-02-21T17:57:26.762Z,11.30
2019-02-21T17:59:57.208Z,11.30
2019-02-21T18:02:27.759Z,11.20
2019-02-21T18:04:58.190Z,11.20
2019-02-21T18:07:36.074Z,11.20
2019-02-21T18:10:00.810Z,11.10
2019-02-21T18:12:31.278Z,11.10
2019-02-21T18:15:01.728Z,11.10
2019-02-21T18:17:32.733Z,11.00
2019-02-21T18:20:03.265Z,10.90
2019-02-21T18:22:33.798Z,10.90
2019-02-21T18:25:06.972Z,10.80
2019-02-21T18:27:37.417Z,10.80
2019-02-21T18:30:09.134Z,10.70
2019-02-21T18:32:39.913Z,10.60
2019-02-21T18:35:10.960Z,10.60
2019-02-21T18:37:47.396Z,10.50
2019-02-21T18:40:18.539Z,10.40
2019-02-21T18:42:47.514Z,10.40
2019-02-21T18:45:19.133Z,10.30
2019-02-21T18:47:49.644Z,10.30
2019-02-21T18:50:20.092Z,10.30
2019-02-21T18:52:50.580Z,10.40
2019-02-21T18:55:21.089Z,10.40
2019-02-21T18:57:51.562Z,10.40
2019-02-21T19:00:23.619Z,10.50
2019-02-21T19:02:58.536Z,10.50
2019-02-21T19:05:35.814Z,10.50
2019-02-21T19:08:05.363Z,10.50
2019-02-21T19:10:39.290Z,10.50
2019-02-21T19:13:09.945Z,10.60
2019-02-21T19:15:40.563Z,10.60
2019-02-21T19:18:11.033Z,10.60
2019-02-21T19:20:50.549Z,10.60
2019-02-21T19:23:35.229Z,10.60
2019-02-21T19:26:25.248Z,10.60
2019-02-21T19:29:19.495Z,10.60
2019-02-21T19:32:02.031Z,10.60
2019-02-21T19:34:47.303Z,10.60
2019-02-21T19:37:15.071Z,10.50
2019-02-21T19:39:45.877Z,10.50
2019-02-21T19:42:16.434Z,10.50
2019-02-21T19:44:46.965Z,10.50
2019-02-21T19:47:17.853Z,10.50
2019-02-21T19:49:48.340Z,10.50
2019-02-21T19:52:18.809Z,10.50
2019-02-21T19:54:49.248Z,10.50
2019-02-21T19:57:20.000Z,10.50
2019-02-21T19:59:50.447Z,10.50
2019-02-21T20:02:21.606Z,10.40
2019-02-21T20:04:52.475Z,10.40
2019-02-21T20:07:22.971Z,10.40
2019-02-21T20:09:53.521Z,10.30
2019-02-21T20:12:24.214Z,10.30
2019-02-21T20:14:57.282Z,10.20
2019-02-21T20:17:27.931Z,10.20
2019-02-21T20:22:34.025Z,10.10
2019-02-21T20:25:06.491Z,10.00
2019-02-21T20:27:36.977Z,9.90
2019-02-21T20:30:09.116Z,9.90
2019-02-21T20:32:40.726Z,9.80
2019-02-21T20:35:11.265Z,9.70
2019-02-21T20:37:42.959Z,9.60
2019-02-21T20:40:13.769Z,9.50
2019-02-21T20:42:44.426Z,9.40
2019-02-21T20:45:14.884Z,9.40
2019-02-21T20:47:45.986Z,9.30
2019-02-21T20:50:16.499Z,9.30
2019-02-21T20:52:47.014Z,9.30
2019-02-21T20:55:17.599Z,9.30
2019-02-21T20:57:48.094Z,9.30
2019-02-21T21:00:18.955Z,9.30
2019-02-21T21:02:49.820Z,9.20
2019-02-21T21:05:20.293Z,9.20
2019-02-21T21:07:50.768Z,9.10
2019-02-21T21:10:21.237Z,8.90
2019-02-21T21:12:52.176Z,8.90
2019-02-21T21:15:22.650Z,8.90
2019-02-21T21:17:53.097Z,8.70
2019-02-21T21:20:25.886Z,8.70
2019-02-21T21:22:55.702Z,8.60
2019-02-21T21:25:26.215Z,8.60
2019-02-21T21:27:56.738Z,8.60
2019-02-21T21:30:27.205Z,8.50
2019-02-21T21:32:57.835Z,8.50
2019-02-21T21:35:28.289Z,8.40
2019-02-21T21:37:58.766Z,8.40
2019-02-21T21:40:30.298Z,8.30
2019-02-21T21:43:01.098Z,8.30
2019-02-21T21:45:31.629Z,8.20
2019-02-21T21:48:03.512Z,8.20
2019-02-21T21:50:38.002Z,8.10
2019-02-21T21:53:09.124Z,8.20
2019-02-21T21:55:41.145Z,8.10
2019-02-21T21:58:16.076Z,8.10
2019-02-21T22:00:48.132Z,8.00
2019-02-21T22:03:19.923Z,7.90
2019-02-21T22:05:50.502Z,7.90
2019-02-21T22:08:22.043Z,7.90
2019-02-21T22:10:52.933Z,7.90
2019-02-21T22:13:23.372Z,7.80
2019-02-21T22:15:53.902Z,7.90
2019-02-21T22:18:24.466Z,7.90
2019-02-21T22:20:54.925Z,7.90
2019-02-21T22:23:26.345Z,8.00
2019-02-21T22:25:57.878Z,8.00
2019-02-21T22:28:29.593Z,8.10
2019-02-21T22:31:00.056Z,8.20
2019-02-21T22:33:30.865Z,8.30
2019-02-21T22:36:01.301Z,8.40
2019-02-21T22:38:31.769Z,8.50
2019-02-21T22:41:02.223Z,8.60
2019-02-21T22:43:33.122Z,8.60
2019-02-21T22:46:03.562Z,8.60
2019-02-21T22:48:34.041Z,8.60
2019-02-21T22:51:05.118Z,8.60
2019-02-21T22:53:35.589Z,8.60
2019-02-21T22:56:06.094Z,8.60
2019-02-21T22:58:44.759Z,8.70
2019-02-21T23:01:30.795Z,8.60
2019-02-21T23:04:23.320Z,8.70
2019-02-21T23:07:23.464Z,8.70
2019-02-21T23:09:54.465Z,8.70
2019-02-21T23:12:25.608Z,8.70
2019-02-21T23:14:56.096Z,8.70
2019-02-21T23:17:26.592Z,8.70
2019-02-21T23:19:57.061Z,8.70
2019-02-21T23:22:27.941Z,8.70
2019-02-21T23:24:58.450Z,8.70
2019-02-21T23:27:28.989Z,8.60
2019-02-21T23:29:59.533Z,8.60
2019-02-21T23:32:30.012Z,8.50
2019-02-21T23:35:00.493Z,8.60
2019-02-21T23:37:30.945Z,8.50
2019-02-21T23:40:01.407Z,8.50
2019-02-21T23:42:33.594Z,8.50
2019-02-21T23:45:04.497Z,8.40
2019-02-21T23:47:34.956Z,8.40
2019-02-21T23:50:05.649Z,8.40
2019-02-21T23:52:37.102Z,8.40
2019-02-21T23:55:07.575Z,8.40
2019-02-21T23:57:38.036Z,8.40
